createdAt,value
2018-04-10T00:01:21.865Z,2.90
2018-04-10T00:03:50.258Z,2.60
2018-04-10T00:06:18.656Z,2.57
2018-04-10T00:08:47.060Z,1.93
2018-04-10T00:11:15.139Z,2.90
2018-04-10T00:13:43.551Z,3.00
2018-04-10T00:16:11.930Z,3.00
2018-04-10T00:18:40.346Z,2.57
2018-04-10T00:21:08.759Z,2.40
2018-04-10T00:23:37.163Z,2.97
2018-04-10T00:26:05.544Z,2.90
2018-04-10T00:28:33.924Z,2.50
2018-04-10T00:31:02.294Z,3.27
2018-04-10T00:33:30.707Z,2.70
2018-04-10T00:35:59.101Z,2.10
2018-04-10T00:38:27.502Z,2.87
2018-04-10T00:40:55.880Z,2.30
2018-04-10T00:43:24.265Z,2.60
2018-04-10T00:45:52.735Z,2.80
2018-04-10T00:48:21.115Z,2.87
2018-04-10T00:50:49.512Z,3.00
2018-04-10T00:53:28.852Z,2.43
2018-04-10T00:55:57.265Z,2.80
2018-04-10T00:58:25.642Z,3.80
2018-04-10T01:00:54.018Z,2.87
2018-04-10T01:03:22.392Z,2.47
2018-04-10T01:05:50.797Z,2.83
2018-04-10T01:08:19.209Z,2.67
2018-04-10T01:10:47.615Z,3.60
2018-04-10T01:13:16.030Z,2.30
2018-04-10T01:15:44.414Z,3.37
2018-04-10T01:18:12.862Z,3.07
2018-04-10T01:20:41.276Z,3.03
2018-04-10T01:23:09.668Z,2.73
2018-04-10T01:25:38.043Z,2.53
2018-04-10T01:28:06.431Z,3.00
2018-04-10T01:30:34.834Z,3.63
2018-04-10T01:33:03.212Z,2.90
2018-04-10T01:35:31.597Z,2.70
2018-04-10T01:38:00.025Z,2.60
2018-04-10T01:40:28.068Z,4.47
2018-04-10T01:42:56.441Z,3.57
2018-04-10T01:45:24.831Z,2.97
2018-04-10T01:47:53.395Z,2.77
2018-04-10T01:50:21.796Z,3.20
2018-04-10T01:52:50.219Z,2.60
2018-04-10T01:55:18.584Z,3.50
2018-04-10T01:57:46.994Z,3.40
2018-04-10T02:00:15.366Z,2.10
2018-04-10T02:02:43.771Z,2.90
2018-04-10T02:05:12.494Z,2.87
2018-04-10T02:07:40.872Z,4.00
2018-04-10T02:10:26.169Z,3.30
2018-04-10T02:12:54.589Z,3.40
2018-04-10T02:15:22.991Z,3.20
2018-04-10T02:17:51.383Z,3.17
2018-04-10T02:20:19.756Z,3.07
2018-04-10T02:22:48.138Z,3.37
2018-04-10T02:25:16.519Z,3.90
2018-04-10T02:27:44.899Z,3.33
2018-04-10T02:30:13.290Z,3.77
2018-04-10T02:32:41.946Z,4.00
2018-04-10T02:35:16.201Z,3.20
2018-04-10T02:37:44.632Z,4.17
2018-04-10T02:40:16.272Z,2.90
2018-04-10T02:42:44.676Z,3.50
2018-04-10T02:45:13.117Z,4.00
2018-04-10T02:47:41.494Z,3.30
2018-04-10T02:50:19.898Z,3.40
2018-04-10T02:52:48.301Z,4.30
2018-04-10T02:55:16.668Z,3.53
2018-04-10T02:57:45.105Z,3.60
2018-04-10T03:00:15.221Z,4.10
2018-04-10T03:02:43.629Z,3.57
2018-04-10T03:05:12.914Z,3.57
2018-04-10T03:07:41.308Z,2.90
2018-04-10T03:10:12.763Z,3.73
2018-04-10T03:12:41.140Z,4.23
2018-04-10T03:15:09.619Z,3.90
2018-04-10T03:17:38.000Z,3.80
2018-04-10T03:20:11.168Z,3.50
2018-04-10T03:22:39.332Z,4.00
2018-04-10T03:25:14.729Z,4.00
2018-04-10T03:27:42.879Z,3.47
2018-04-10T03:30:16.349Z,4.03
2018-04-10T03:32:44.771Z,3.87
2018-04-10T03:35:13.163Z,2.60
2018-04-10T03:37:41.587Z,3.60
2018-04-10T03:40:16.237Z,3.43
2018-04-10T03:42:44.679Z,3.13
2018-04-10T03:45:13.056Z,3.50
2018-04-10T03:47:41.477Z,3.80
2018-04-10T03:50:15.228Z,3.63
2018-04-10T03:52:43.638Z,2.77
2018-04-10T03:55:15.535Z,3.67
2018-04-10T03:57:43.936Z,3.30
2018-04-10T04:00:12.312Z,3.30
2018-04-10T04:02:40.695Z,3.80
2018-04-10T04:05:12.727Z,4.10
2018-04-10T04:07:41.140Z,4.83
2018-04-10T04:10:13.172Z,4.23
2018-04-10T04:12:41.554Z,3.80
2018-04-10T04:15:16.409Z,3.57
2018-04-10T04:17:44.820Z,3.57
2018-04-10T04:20:24.390Z,4.33
2018-04-10T04:22:52.766Z,3.23
2018-04-10T04:25:21.152Z,3.93
2018-04-10T04:27:49.675Z,3.43
2018-04-10T04:30:18.178Z,4.20
2018-04-10T04:32:46.606Z,3.60
2018-04-10T04:35:15.721Z,3.20
2018-04-10T04:37:44.173Z,3.40
2018-04-10T04:40:15.548Z,3.80
2018-04-10T04:42:43.954Z,3.30
2018-04-10T04:45:13.563Z,3.40
2018-04-10T04:47:41.948Z,4.20
2018-04-10T04:50:10.332Z,3.07
2018-04-10T04:52:38.731Z,3.33
2018-04-10T04:55:13.400Z,4.37
2018-04-10T04:57:41.824Z,3.57
2018-04-10T05:00:16.623Z,3.50
2018-04-10T05:02:44.997Z,3.87
2018-04-10T05:05:13.384Z,3.67
2018-04-10T05:07:41.784Z,3.83
2018-04-10T05:10:14.026Z,4.70
2018-04-10T05:12:42.430Z,3.80
2018-04-10T05:15:16.489Z,3.80
2018-04-10T05:17:44.884Z,3.13
2018-04-10T05:20:15.837Z,3.53
2018-04-10T05:22:44.212Z,3.33
2018-04-10T05:25:12.592Z,4.47
2018-04-10T05:27:40.972Z,4.23
2018-04-10T05:30:12.933Z,3.33
2018-04-10T05:32:41.284Z,3.43
2018-04-10T05:35:14.335Z,4.00
2018-04-10T05:37:42.738Z,3.30
2018-04-10T05:40:14.843Z,3.63
2018-04-10T05:42:43.231Z,4.43
2018-04-10T05:45:17.321Z,3.63
2018-04-10T05:47:45.716Z,3.23
2018-04-10T05:50:14.402Z,2.90
2018-04-10T05:52:42.781Z,2.70
2018-04-10T05:55:13.756Z,3.40
2018-04-10T05:57:41.913Z,2.80
2018-04-10T06:00:12.245Z,2.50
2018-04-10T06:02:40.627Z,2.60
2018-04-10T06:05:12.501Z,3.30
2018-04-10T06:07:40.906Z,2.03
2018-04-10T06:10:13.268Z,2.83
2018-04-10T06:12:41.434Z,2.50
2018-04-10T06:15:12.694Z,3.20
2018-04-10T06:17:41.076Z,2.70
2018-04-10T06:20:15.254Z,3.00
2018-04-10T06:22:43.412Z,2.63
2018-04-10T06:25:13.485Z,2.97
2018-04-10T06:27:41.863Z,2.67
2018-04-10T06:30:16.845Z,3.20
2018-04-10T06:32:45.253Z,3.00
2018-04-10T06:35:33.200Z,2.57
2018-04-10T06:38:01.675Z,2.57
2018-04-10T06:40:30.045Z,2.40
2018-04-10T06:42:58.412Z,2.33
2018-04-10T06:45:26.850Z,2.70
2018-04-10T06:47:55.243Z,2.03
2018-04-10T06:50:23.626Z,2.63
2018-04-10T06:52:52.008Z,2.90
2018-04-10T06:55:20.384Z,2.50
2018-04-10T06:57:48.782Z,2.53
2018-04-10T07:00:17.166Z,2.07
2018-04-10T07:02:45.319Z,2.87
2018-04-10T07:05:13.706Z,2.53
2018-04-10T07:07:42.075Z,2.50
2018-04-10T07:10:16.061Z,2.10
2018-04-10T07:12:44.463Z,2.07
2018-04-10T07:15:13.023Z,2.60
2018-04-10T07:17:41.453Z,2.03
2018-04-10T07:20:13.495Z,2.10
2018-04-10T07:22:41.905Z,2.40
2018-04-10T07:25:17.977Z,2.30
2018-04-10T07:27:46.341Z,1.80
2018-04-10T07:30:14.920Z,1.90
2018-04-10T07:32:43.296Z,1.63
2018-04-10T07:35:15.893Z,2.87
2018-04-10T07:37:44.286Z,2.30
2018-04-10T07:40:16.018Z,2.63
2018-04-10T07:42:47.747Z,2.43
2018-04-10T07:45:16.140Z,5.10
2018-04-10T07:47:44.515Z,2.47
2018-04-10T07:50:15.870Z,1.97
2018-04-10T07:52:44.331Z,3.30
2018-04-10T07:55:17.288Z,2.30
2018-04-10T07:57:45.657Z,2.03
2018-04-10T08:00:14.901Z,2.10
2018-04-10T08:02:43.266Z,1.30
2018-04-10T08:05:15.035Z,2.10
2018-04-10T08:07:43.685Z,1.97
2018-04-10T08:10:13.998Z,1.53
2018-04-10T08:12:42.375Z,1.80
2018-04-10T08:15:16.694Z,2.13
2018-04-10T08:17:45.076Z,1.80
2018-04-10T08:20:15.805Z,1.97
2018-04-10T08:22:44.224Z,1.63
2018-04-10T08:25:18.535Z,2.00
2018-04-10T08:27:47.639Z,1.20
2018-04-10T08:30:16.113Z,1.20
2018-04-10T08:32:44.756Z,1.53
2018-04-10T08:35:16.989Z,1.43
2018-04-10T08:37:45.653Z,1.50
2018-04-10T08:40:14.575Z,1.40
2018-04-10T08:42:42.950Z,1.40
2018-04-10T08:45:11.346Z,1.73
2018-04-10T08:47:39.728Z,1.30
2018-04-10T08:50:14.243Z,1.80
2018-04-10T08:52:42.639Z,1.90
2018-04-10T08:55:15.982Z,2.70
2018-04-10T08:57:44.560Z,1.97
2018-04-10T09:00:12.601Z,2.67
2018-04-10T09:02:40.982Z,2.10
2018-04-10T09:05:16.699Z,1.77
2018-04-10T09:07:45.297Z,1.40
2018-04-10T09:10:13.801Z,1.90
2018-04-10T09:12:42.274Z,0.90
2018-04-10T09:15:16.248Z,1.90
2018-04-10T09:17:44.636Z,1.43
2018-04-10T09:20:13.419Z,1.60
2018-04-10T09:22:41.800Z,1.57
2018-04-10T09:25:11.396Z,1.70
2018-04-10T09:27:39.766Z,1.43
2018-04-10T09:30:22.060Z,1.47
2018-04-10T09:32:50.458Z,1.60
2018-04-10T09:35:18.620Z,1.63
2018-04-10T09:37:47.011Z,1.57
2018-04-10T09:40:15.382Z,1.47
2018-04-10T09:42:43.752Z,1.27
2018-04-10T09:45:15.669Z,1.60
2018-04-10T09:47:44.097Z,1.60
2018-04-10T09:50:12.892Z,1.37
2018-04-10T09:52:41.432Z,1.33
2018-04-10T09:55:16.749Z,1.80
2018-04-10T09:57:45.121Z,1.87
2018-04-10T10:00:13.280Z,1.93
2018-04-10T10:02:41.681Z,2.07
2018-04-10T10:05:13.793Z,2.60
2018-04-10T10:07:42.197Z,2.67
2018-04-10T10:10:16.482Z,2.40
2018-04-10T10:12:44.887Z,2.30
2018-04-10T10:15:16.768Z,2.10
2018-04-10T10:17:45.187Z,2.67
2018-04-10T10:20:15.386Z,2.20
2018-04-10T10:22:43.764Z,1.90
2018-04-10T10:25:14.984Z,1.87
2018-04-10T10:27:43.445Z,2.20
2018-04-10T10:30:16.468Z,2.77
2018-04-10T10:32:45.642Z,1.90
2018-04-10T10:35:14.030Z,2.70
2018-04-10T10:37:42.427Z,2.90
2018-04-10T10:40:10.956Z,2.13
2018-04-10T10:42:39.364Z,2.67
2018-04-10T10:45:13.025Z,1.87
2018-04-10T10:47:41.485Z,1.90
2018-04-10T10:50:15.605Z,2.03
2018-04-10T10:52:44.044Z,1.60
2018-04-10T10:55:16.998Z,2.03
2018-04-10T10:57:45.406Z,1.97
2018-04-10T11:00:15.179Z,1.90
2018-04-10T11:02:43.618Z,2.60
2018-04-10T11:05:12.063Z,2.83
2018-04-10T11:07:40.478Z,2.27
2018-04-10T11:10:11.032Z,2.93
2018-04-10T11:12:39.401Z,2.10
2018-04-10T11:15:11.584Z,2.10
2018-04-10T11:17:39.991Z,2.10
2018-04-10T11:20:13.714Z,2.60
2018-04-10T11:22:42.085Z,2.20
2018-04-10T11:25:16.391Z,1.67
2018-04-10T11:27:44.796Z,2.07
2018-04-10T11:30:13.166Z,2.10
2018-04-10T11:32:41.534Z,2.60
2018-04-10T11:35:12.573Z,2.00
2018-04-10T11:37:40.708Z,2.07
2018-04-10T11:40:19.518Z,2.47
2018-04-10T11:42:47.945Z,2.20
2018-04-10T11:45:16.913Z,2.73
2018-04-10T11:47:45.351Z,2.43
2018-04-10T11:50:17.469Z,3.10
2018-04-10T11:52:45.642Z,2.30
2018-04-10T11:55:14.099Z,3.10
2018-04-10T11:57:42.515Z,2.80
2018-04-10T12:00:11.045Z,2.20
2018-04-10T12:02:39.545Z,2.37
2018-04-10T12:05:13.871Z,2.13
2018-04-10T12:07:42.407Z,2.60
2018-04-10T12:10:14.183Z,2.60
2018-04-10T12:12:42.643Z,2.57
2018-04-10T12:15:11.790Z,2.07
2018-04-10T12:17:40.171Z,2.37
2018-04-10T12:20:11.983Z,2.60
2018-04-10T12:22:40.364Z,6.07
2018-04-10T12:25:14.268Z,3.03
2018-04-10T12:27:42.644Z,2.10
2018-04-10T12:30:13.171Z,2.77
2018-04-10T12:32:41.546Z,2.20
2018-04-10T12:35:15.190Z,1.63
2018-04-10T12:37:43.596Z,1.93
2018-04-10T12:40:14.080Z,2.00
2018-04-10T12:42:42.253Z,1.47
2018-04-10T12:45:13.271Z,2.00
2018-04-10T12:47:41.669Z,1.73
2018-04-10T12:50:15.053Z,1.60
2018-04-10T12:52:43.583Z,2.17
2018-04-10T12:55:13.338Z,2.03
2018-04-10T12:57:41.719Z,1.60
2018-04-10T13:00:12.380Z,1.57
2018-04-10T13:02:41.358Z,1.20
2018-04-10T13:05:12.650Z,2.63
2018-04-10T13:07:41.068Z,1.40
2018-04-10T13:10:13.095Z,2.30
2018-04-10T13:12:41.480Z,2.37
2018-04-10T13:15:14.727Z,1.40
2018-04-10T13:17:43.128Z,1.70
2018-04-10T13:20:13.517Z,1.80
2018-04-10T13:22:41.892Z,1.87
2018-04-10T13:25:16.328Z,1.70
2018-04-10T13:27:44.753Z,1.90
2018-04-10T13:30:16.828Z,2.37
2018-04-10T13:32:45.241Z,1.93
2018-04-10T13:35:16.680Z,2.53
2018-04-10T13:37:45.067Z,2.30
2018-04-10T13:40:17.229Z,1.40
2018-04-10T13:42:46.555Z,2.10
2018-04-10T13:45:14.978Z,1.77
2018-04-10T13:47:43.359Z,1.57
2018-04-10T13:50:11.737Z,1.73
2018-04-10T13:52:40.173Z,1.80
2018-04-10T13:55:13.136Z,1.50
2018-04-10T13:57:41.545Z,2.00
2018-04-10T14:00:13.505Z,2.70
2018-04-10T14:02:41.951Z,2.03
2018-04-10T14:05:10.996Z,2.60
2018-04-10T14:07:39.160Z,1.60
2018-04-10T14:10:15.746Z,2.00
2018-04-10T14:12:44.179Z,1.37
2018-04-10T14:15:12.341Z,2.20
2018-04-10T14:17:40.714Z,2.13
2018-04-10T14:20:13.422Z,2.10
2018-04-10T14:22:41.820Z,1.93
2018-04-10T14:25:15.913Z,2.20
2018-04-10T14:27:44.061Z,1.67
2018-04-10T14:30:15.612Z,1.90
2018-04-10T14:32:43.986Z,2.17
2018-04-10T14:37:53.049Z,2.13
2018-04-10T14:40:21.269Z,2.50
2018-04-10T14:42:49.662Z,1.90
2018-04-10T14:45:18.098Z,2.00
2018-04-10T14:47:46.493Z,2.00
2018-04-10T14:50:18.042Z,2.80
2018-04-10T14:52:46.275Z,2.07
2018-04-10T14:55:14.428Z,2.40
2018-04-10T14:57:42.575Z,2.93
2018-04-10T15:00:16.061Z,3.47
2018-04-10T15:02:45.628Z,2.07
2018-04-10T15:05:15.631Z,3.40
2018-04-10T15:07:44.030Z,1.93
2018-04-10T15:10:14.207Z,2.00
2018-04-10T15:12:42.604Z,2.93
2018-04-10T15:15:17.162Z,3.23
2018-04-10T15:17:45.881Z,2.10
2018-04-10T15:20:16.754Z,2.83
2018-04-10T15:22:47.654Z,2.27
2018-04-10T15:25:19.957Z,3.00
2018-04-10T15:27:48.143Z,3.20
2018-04-10T15:30:16.539Z,2.87
2018-04-10T15:32:44.925Z,3.90
2018-04-10T15:35:13.976Z,3.00
2018-04-10T15:37:42.358Z,3.27
2018-04-10T15:40:12.874Z,4.00
2018-04-10T15:42:41.283Z,2.80
2018-04-10T15:45:16.003Z,3.10
2018-04-10T15:47:44.398Z,3.13
2018-04-10T15:50:15.967Z,1.83
2018-04-10T15:52:44.338Z,1.50
2018-04-10T15:55:12.740Z,2.00
2018-04-10T15:57:41.604Z,2.50
2018-04-10T16:00:10.065Z,1.70
2018-04-10T16:02:38.493Z,2.10
2018-04-10T16:05:10.010Z,2.60
2018-04-10T16:07:38.795Z,2.20
2018-04-10T16:10:07.322Z,2.30
2018-04-10T16:12:35.693Z,2.17
2018-04-10T16:15:03.828Z,2.60
2018-04-10T16:17:32.469Z,2.30
2018-04-10T16:20:00.847Z,2.73
2018-04-10T16:22:29.224Z,2.57
2018-04-10T16:24:57.639Z,2.73
2018-04-10T16:27:26.024Z,2.27
2018-04-10T16:29:54.455Z,2.60
2018-04-10T16:32:22.644Z,2.80
2018-04-10T16:34:51.064Z,2.80
2018-04-10T16:37:19.454Z,3.13
2018-04-10T16:39:47.830Z,2.67
2018-04-10T16:42:16.203Z,3.50
2018-04-10T16:44:44.647Z,2.70
2018-04-10T16:47:12.861Z,3.03
2018-04-10T16:49:41.246Z,2.83
2018-04-10T16:52:10.205Z,2.93
2018-04-10T16:54:38.745Z,3.47
2018-04-10T16:57:07.139Z,3.40
2018-04-10T16:59:35.534Z,2.57
2018-04-10T17:02:03.738Z,2.77
2018-04-10T17:04:32.165Z,3.30
2018-04-10T17:07:00.696Z,3.30
2018-04-10T17:09:28.902Z,3.57
2018-04-10T17:11:57.383Z,3.10
2018-04-10T17:14:25.687Z,2.93
2018-04-10T17:16:54.236Z,5.50
2018-04-10T17:19:23.288Z,3.17
2018-04-10T17:21:51.705Z,3.03
2018-04-10T17:24:19.917Z,2.47
2018-04-10T17:26:49.093Z,2.63
2018-04-10T17:29:18.036Z,3.33
2018-04-10T17:31:46.227Z,2.63
2018-04-10T17:34:14.403Z,3.10
2018-04-10T17:36:42.909Z,2.40
2018-04-10T17:39:11.372Z,2.90
2018-04-10T17:41:39.752Z,2.67
2018-04-10T17:44:08.127Z,3.60
2018-04-10T17:46:36.583Z,3.07
2018-04-10T17:49:04.992Z,3.17
2018-04-10T17:51:33.465Z,2.53
2018-04-10T17:54:01.643Z,3.47
2018-04-10T17:56:30.165Z,3.57
2018-04-10T17:58:58.635Z,2.97
2018-04-10T18:01:27.253Z,3.50
2018-04-10T18:03:56.354Z,3.00
2018-04-10T18:06:24.797Z,2.83
2018-04-10T18:08:53.315Z,3.10
2018-04-10T18:11:21.694Z,3.13
2018-04-10T18:13:50.006Z,3.83
2018-04-10T18:16:18.393Z,3.80
2018-04-10T18:18:46.787Z,3.20
2018-04-10T18:21:15.171Z,2.83
2018-04-10T18:23:43.539Z,3.80
2018-04-10T18:26:11.920Z,3.23
2018-04-10T18:28:40.298Z,2.73
2018-04-10T18:31:08.701Z,3.03
2018-04-10T18:33:37.204Z,4.40
2018-04-10T18:36:05.398Z,3.17
2018-04-10T18:38:33.980Z,3.20
2018-04-10T18:41:02.372Z,3.60
2018-04-10T18:43:30.782Z,3.63
2018-04-10T18:45:59.199Z,4.07
2018-04-10T18:48:27.599Z,3.67
2018-04-10T18:50:55.981Z,3.53
2018-04-10T18:53:24.461Z,3.67
2018-04-10T18:55:52.847Z,3.47
2018-04-10T18:58:21.260Z,3.00
2018-04-10T19:00:49.841Z,4.40
2018-04-10T19:03:18.221Z,3.20
2018-04-10T19:05:46.640Z,3.43
2018-04-10T19:08:15.023Z,4.07
2018-04-10T19:10:43.430Z,4.20
2018-04-10T19:13:11.869Z,3.20
2018-04-10T19:15:41.012Z,4.43
2018-04-10T19:18:09.816Z,4.60
2018-04-10T19:20:38.740Z,4.10
2018-04-10T19:23:07.299Z,4.10
2018-04-10T19:25:35.920Z,3.50
2018-04-10T19:28:05.185Z,4.43
2018-04-10T19:30:34.106Z,4.10
2018-04-10T19:33:02.537Z,3.73
2018-04-10T19:35:30.933Z,4.00
2018-04-10T19:37:59.457Z,5.00
2018-04-10T19:40:27.928Z,4.30
2018-04-10T19:42:59.843Z,4.30
2018-04-10T19:45:28.314Z,3.83
2018-04-10T19:47:56.858Z,4.33
2018-04-10T19:50:25.036Z,4.37
2018-04-10T19:52:53.464Z,3.80
2018-04-10T19:55:22.076Z,3.23
2018-04-10T19:57:50.472Z,3.50
2018-04-10T20:00:18.878Z,4.13
2018-04-10T20:02:47.396Z,3.90
2018-04-10T20:05:15.804Z,3.40
2018-04-10T20:07:44.225Z,3.70
2018-04-10T20:10:12.372Z,3.33
2018-04-10T20:12:40.901Z,2.83
2018-04-10T20:15:09.287Z,4.07
2018-04-10T20:17:37.722Z,3.60
2018-04-10T20:20:05.324Z,7.00
2018-04-10T20:22:33.799Z,5.60
2018-04-10T20:25:02.228Z,4.60
2018-04-10T20:27:30.400Z,3.90
2018-04-10T20:29:59.002Z,3.80
2018-04-10T20:32:28.136Z,3.80
2018-04-10T20:34:56.590Z,4.40
2018-04-10T20:37:24.986Z,5.40
2018-04-10T20:39:53.443Z,5.70
2018-04-10T20:42:22.577Z,5.43
2018-04-10T20:44:50.760Z,4.40
2018-04-10T20:47:19.085Z,3.97
2018-04-10T20:49:47.235Z,5.27
2018-04-10T20:52:15.645Z,4.50
2018-04-10T20:54:44.751Z,4.50
2018-04-10T20:57:13.654Z,5.30
2018-04-10T20:59:42.021Z,3.87
2018-04-10T21:02:10.445Z,5.13
2018-04-10T21:04:38.828Z,3.80
2018-04-10T21:07:07.219Z,3.33
2018-04-10T21:09:35.613Z,3.80
2018-04-10T21:12:03.990Z,3.90
2018-04-10T21:14:32.370Z,3.83
2018-04-10T21:17:00.785Z,3.53
2018-04-10T21:19:29.178Z,4.77
2018-04-10T21:21:57.581Z,3.50
2018-04-10T21:24:25.951Z,4.50
2018-04-10T21:26:54.345Z,4.17
2018-04-10T21:29:22.855Z,5.60
2018-04-10T21:31:51.261Z,6.17
2018-04-10T21:34:19.873Z,5.50
2018-04-10T21:36:48.126Z,4.20
2018-04-10T21:39:16.777Z,3.60
2018-04-10T21:41:45.195Z,3.67
2018-04-10T21:44:13.642Z,4.90
2018-04-10T21:46:42.012Z,3.80
2018-04-10T21:49:10.740Z,4.50
2018-04-10T21:51:39.153Z,4.23
2018-04-10T21:54:07.565Z,5.80
2018-04-10T21:56:35.967Z,3.90
2018-04-10T21:59:04.386Z,3.77
2018-04-10T22:01:32.810Z,3.27
2018-04-10T22:04:01.207Z,3.00
2018-04-10T22:06:29.626Z,4.13
2018-04-10T22:08:58.036Z,2.93
2018-04-10T22:11:26.448Z,3.37
2018-04-10T22:13:54.824Z,3.13
2018-04-10T22:16:23.210Z,2.87
2018-04-10T22:18:51.620Z,3.10
2018-04-10T22:21:19.995Z,2.90
2018-04-10T22:23:48.377Z,2.93
2018-04-10T22:26:16.793Z,3.70
2018-04-10T22:28:45.237Z,2.50
2018-04-10T22:31:13.628Z,3.00
2018-04-10T22:33:42.001Z,3.40
2018-04-10T22:36:10.468Z,2.63
2018-04-10T22:38:38.848Z,2.40
2018-04-10T22:41:07.225Z,3.37
2018-04-10T22:43:35.637Z,3.00
2018-04-10T22:46:04.017Z,2.83
2018-04-10T22:48:32.449Z,3.63
2018-04-10T22:51:00.821Z,3.27
2018-04-10T22:53:29.217Z,2.70
2018-04-10T22:55:57.600Z,3.30
2018-04-10T22:58:26.018Z,3.00
2018-04-10T23:00:54.416Z,3.23
2018-04-10T23:03:22.824Z,2.70
2018-04-10T23:05:51.227Z,3.37
2018-04-10T23:08:19.616Z,2.80
2018-04-10T23:10:48.025Z,2.70
2018-04-10T23:13:16.627Z,2.13
2018-04-10T23:15:44.781Z,2.10
2018-04-10T23:18:13.161Z,2.80
2018-04-10T23:20:41.568Z,2.57
2018-04-10T23:23:09.984Z,2.20
2018-04-10T23:25:38.371Z,2.73
2018-04-10T23:28:06.764Z,2.10
2018-04-10T23:30:35.146Z,2.23
2018-04-10T23:33:03.544Z,1.97
2018-04-10T23:35:31.913Z,1.83
2018-04-10T23:38:00.278Z,2.47
2018-04-10T23:40:28.434Z,2.83
2018-04-10T23:42:56.577Z,2.93
2018-04-10T23:45:24.731Z,2.50
2018-04-10T23:47:52.855Z,2.20
2018-04-10T23:50:21.225Z,3.23
2018-04-10T23:52:49.588Z,2.50
2018-04-10T23:55:17.964Z,2.97
2018-04-10T23:57:46.330Z,2.73
